Terminal Aerodrome Forecast
Issued by NWS Billings, MT

Home | Current Version | Previous Version | Text Only | Print | Product List | Glossary Off
Versions: 1 2 3 4 5 6 7 8 9 10 11 12 13 14 15 16 17

000
FTUS45 KBYZ 201739
TAFMLS
TAF
KMLS 201739Z 2018/2118 17008KT P6SM FEW150
     FM202300 26016KT P6SM BKN150
     FM210200 30029G44KT P6SM VCSH SCT050 BKN080
     FM210700 26017G24KT P6SM FEW050
     FM211500 28024G31KT P6SM BKN050=

USA.gov is the U.S. government's official web portal to all federal, state and local government web resources and services.